Main page
METAR-TAF:

METAR-TAF

Airports :

Moscow-Sheremetyevo, Russia

Sheremetyevo International Airport

latitude: 55-59N, longitude: 037-30E, elevation: 190 m

Current weather observation

The report was made 25 minutes ago, at 11:30 UTC
Wind 10 kt from the South/Southeast
Temperature 29°C
Humidity 35%
Pressure 1018 hPa
Visibility 10 km or more
no clouds below 1500 m and no cumulonimbus

METAR: UUEE 211130Z 16005MPS CAVOK 29/12 Q1018 R06L/CLRD62 R06R/CLRD62 NOSIG

Time: 14:55 (11:55 UTC)

Forecast

The report was made 58 minutes ago, at 10:57 UTC
Forecast valid from 21 at 12 UTC to 22 at 12 UTC
Wind 10 kt from the South with gusts up to 23 kt
Visibility 10 km or more
no clouds below 1500 m and no cumulonimbus
Becoming
from 21 at 18 UTC to 21 at 20 UTC
Wind 8 kt from the East/Southeast
Broken clouds at a height of 3000 ft

TAF: UUEE 211057Z 2112/2212 17005G12MPS CAVOK TX29/2113Z TN16/2201Z BECMG 2118/2120 11004MPS BKN030

Weather observations and forecasts of more than 4000 airports (METAR and TAF reports).

The available stations are represented by yellow and red dots on the map.

Hover mouse over dot to see the name of the station.

Then click to see weather observations and forecasts.

To change the map : click on the green buttons with a black cross to zoom in, on the green button with a dash to zoom out, or on the green arrows for adjacent maps.


METAR-TAF: